sensor_id;sensor_type;location;lat;lon;timestamp;P1;P2;P0
55686;PMS5003;41911;52.362;4.978;2022-11-02T00:01:36;4.0;3.0;
55686;PMS5003;41911;52.362;4.978;2022-11-02T00:02:11;3.0;3.0;
55686;PMS5003;41911;52.362;4.978;2022-11-02T00:02:42;2.0;2.0;
55686;PMS5003;41911;52.362;4.978;2022-11-02T00:03:13;4.0;3.0;
55686;PMS5003;41911;52.362;4.978;2022-11-02T00:03:44;3.0;3.0;
55686;PMS5003;41911;52.362;4.978;2022-11-02T00:04:15;3.0;3.0;
55686;PMS5003;41911;52.362;4.978;2022-11-02T00:04:46;2.0;2.0;
55686;PMS5003;41911;52.362;4.978;2022-11-02T00:05:17;4.0;3.0;
55686;PMS5003;41911;52.362;4.978;2022-11-02T00:05:47;2.0;2.0;
55686;PMS5003;41911;52.362;4.978;2022-11-02T00:06:18;3.0;3.0;
55686;PMS5003;41911;52.362;4.978;2022-11-02T00:06:49;4.0;3.0;
55686;PMS5003;41911;52.362;4.978;2022-11-02T00:09:16;4.0;3.0;
55686;PMS5003;41911;52.362;4.978;2022-11-02T00:09:46;4.0;3.0;
55686;PMS5003;41911;52.362;4.978;2022-11-02T00:10:18;2.0;2.0;
55686;PMS5003;41911;52.362;4.978;2022-11-02T00:10:49;3.0;2.0;
55686;PMS5003;41911;52.362;4.978;2022-11-02T00:11:20;3.0;3.0;
55686;PMS5003;41911;52.362;4.978;2022-11-02T00:11:51;4.0;3.0;
55686;PMS5003;41911;52.362;4.978;2022-11-02T00:12:22;2.0;2.0;
55686;PMS5003;41911;52.362;4.978;2022-11-02T00:12:53;3.0;3.0;
55686;PMS5003;41911;52.362;4.978;2022-11-02T00:13:25;4.0;4.0;
55686;PMS5003;41911;52.362;4.978;2022-11-02T00:13:56;3.0;3.0;
55686;PMS5003;41911;52.362;4.978;2022-11-02T00:14:27;4.0;3.0;
55686;PMS5003;41911;52.362;4.978;2022-11-02T00:14:58;4.0;2.0;
55686;PMS5003;41911;52.362;4.978;2022-11-02T00:15:30;4.0;3.0;
55686;PMS5003;41911;52.362;4.978;2022-11-02T00:16:05;1.0;1.0;
55686;PMS5003;41911;52.362;4.978;2022-11-02T00:16:38;2.0;2.0;
55686;PMS5003;41911;52.362;4.978;2022-11-02T00:17:10;2.0;2.0;
55686;PMS5003;41911;52.362;4.978;2022-11-02T00:17:41;4.0;3.0;
55686;PMS5003;41911;52.362;4.978;2022-11-02T00:18:16;4.0;4.0;
55686;PMS5003;41911;52.362;4.978;2022-11-02T00:18:47;2.0;2.0;
55686;PMS5003;41911;52.362;4.978;2022-11-02T00:19:23;3.0;3.0;
55686;PMS5003;41911;52.362;4.978;2022-11-02T00:19:54;5.0;3.0;
55686;PMS5003;41911;52.362;4.978;2022-11-02T00:20:26;2.0;2.0;
55686;PMS5003;41911;52.362;4.978;2022-11-02T00:20:57;4.0;3.0;
55686;PMS5003;41911;52.362;4.978;2022-11-02T00:21:28;4.0;3.0;
55686;PMS5003;41911;52.362;4.978;2022-11-02T00:21:59;3.0;3.0;
55686;PMS5003;41911;52.362;4.978;2022-11-02T00:22:30;3.0;3.0;
55686;PMS5003;41911;52.362;4.978;2022-11-02T00:23:03;4.0;4.0;
55686;PMS5003;41911;52.362;4.978;2022-11-02T00:23:35;3.0;3.0;
55686;PMS5003;41911;52.362;4.978;2022-11-02T00:24:06;4.0;3.0;
55686;PMS5003;41911;52.362;4.978;2022-11-02T00:24:40;3.0;3.0;
55686;PMS5003;41911;52.362;4.978;2022-11-02T00:25:11;4.0;4.0;
55686;PMS5003;41911;52.362;4.978;2022-11-02T00:25:46;3.0;3.0;
55686;PMS5003;41911;52.362;4.978;2022-11-02T00:26:20;3.0;3.0;
55686;PMS5003;41911;52.362;4.978;2022-11-02T00:26:51;6.0;5.0;
55686;PMS5003;41911;52.362;4.978;2022-11-02T00:27:23;5.0;3.0;
55686;PMS5003;41911;52.362;4.978;2022-11-02T00:27:54;4.0;4.0;
55686;PMS5003;41911;52.362;4.978;2022-11-02T00:28:25;4.0;4.0;
55686;PMS5003;41911;52.362;4.978;2022-11-02T00:28:57;4.0;4.0;
55686;PMS5003;41911;52.362;4.978;2022-11-02T00:29:27;4.0;4.0;
55686;PMS5003;41911;52.362;4.978;2022-11-02T00:29:59;4.0;3.0;
55686;PMS5003;41911;52.362;4.978;2022-11-02T00:30:30;5.0;4.0;
55686;PMS5003;41911;52.362;4.978;2022-11-02T00:31:01;6.0;5.0;
55686;PMS5003;41911;52.362;4.978;2022-11-02T00:31:32;4.0;4.0;
55686;PMS5003;41911;52.362;4.978;2022-11-02T00:32:03;5.0;5.0;
55686;PMS5003;41911;52.362;4.978;2022-11-02T00:32:35;4.0;4.0;
55686;PMS5003;41911;52.362;4.978;2022-11-02T00:33:06;6.0;5.0;
55686;PMS5003;41911;52.362;4.978;2022-11-02T00:33:37;6.0;5.0;
55686;PMS5003;41911;52.362;4.978;2022-11-02T00:34:08;5.0;5.0;
55686;PMS5003;41911;52.362;4.978;2022-11-02T00:34:39;9.0;6.0;
55686;PMS5003;41911;52.362;4.978;2022-11-02T00:35:10;5.0;5.0;
55686;PMS5003;41911;52.362;4.978;2022-11-02T00:35:42;6.0;4.0;
55686;PMS5003;41911;52.362;4.978;2022-11-02T00:36:13;6.0;4.0;
55686;PMS5003;41911;52.362;4.978;2022-11-02T00:36:44;4.0;4.0;
55686;PMS5003;41911;52.362;4.978;2022-11-02T00:37:15;4.0;4.0;
55686;PMS5003;41911;52.362;4.978;2022-11-02T00:37:46;5.0;5.0;
55686;PMS5003;41911;52.362;4.978;2022-11-02T00:38:17;3.0;3.0;
55686;PMS5003;41911;52.362;4.978;2022-11-02T00:38:48;4.0;3.0;
55686;PMS5003;41911;52.362;4.978;2022-11-02T00:39:19;3.0;2.0;
55686;PMS5003;41911;52.362;4.978;2022-11-02T00:39:50;3.0;3.0;
55686;PMS5003;41911;52.362;4.978;2022-11-02T00:40:21;2.0;2.0;
55686;PMS5003;41911;52.362;4.978;2022-11-02T00:40:52;3.0;3.0;
55686;PMS5003;41911;52.362;4.978;2022-11-02T00:41:23;3.0;3.0;
55686;PMS5003;41911;52.362;4.978;2022-11-02T00:41:54;2.0;2.0;
55686;PMS5003;41911;52.362;4.978;2022-11-02T00:42:25;3.0;3.0;
55686;PMS5003;41911;52.362;4.978;2022-11-02T00:42:56;6.0;5.0;
55686;PMS5003;41911;52.362;4.978;2022-11-02T00:43:27;5.0;4.0;
55686;PMS5003;41911;52.362;4.978;2022-11-02T00:43:58;7.0;4.0;
55686;PMS5003;41911;52.362;4.978;2022-11-02T00:44:29;4.0;4.0;
55686;PMS5003;41911;52.362;4.978;2022-11-02T00:45:00;5.0;5.0;
55686;PMS5003;41911;52.362;4.978;2022-11-02T00:45:31;5.0;4.0;
55686;PMS5003;41911;52.362;4.978;2022-11-02T00:46:02;6.0;5.0;
55686;PMS5003;41911;52.362;4.978;2022-11-02T00:46:33;4.0;3.0;
55686;PMS5003;41911;52.362;4.978;2022-11-02T00:47:04;4.0;4.0;
55686;PMS5003;41911;52.362;4.978;2022-11-02T00:47:35;5.0;5.0;
55686;PMS5003;41911;52.362;4.978;2022-11-02T00:48:06;5.0;5.0;
55686;PMS5003;41911;52.362;4.978;2022-11-02T00:48:37;4.0;3.0;
55686;PMS5003;41911;52.362;4.978;2022-11-02T00:49:09;4.0;3.0;
55686;PMS5003;41911;52.362;4.978;2022-11-02T00:49:40;3.0;3.0;
55686;PMS5003;41911;52.362;4.978;2022-11-02T00:50:10;3.0;2.0;
55686;PMS5003;41911;52.362;4.978;2022-11-02T00:50:41;2.0;2.0;
55686;PMS5003;41911;52.362;4.978;2022-11-02T00:51:12;4.0;3.0;
55686;PMS5003;41911;52.362;4.978;2022-11-02T00:51:43;4.0;3.0;
55686;PMS5003;41911;52.362;4.978;2022-11-02T00:52:14;3.0;3.0;
55686;PMS5003;41911;52.362;4.978;2022-11-02T00:52:45;3.0;2.0;
55686;PMS5003;41911;52.362;4.978;2022-11-02T00:53:16;2.0;2.0;
55686;PMS5003;41911;52.362;4.978;2022-11-02T00:53:47;3.0;3.0;
55686;PMS5003;41911;52.362;4.978;2022-11-02T00:54:18;2.0;2.0;
55686;PMS5003;41911;52.362;4.978;2022-11-02T00:54:49;2.0;2.0;
55686;PMS5003;41911;52.362;4.978;2022-11-02T00:56:40;1.0;1.0;
55686;PMS5003;41911;52.362;4.978;2022-11-02T00:57:11;1.0;1.0;
55686;PMS5003;41911;52.362;4.978;2022-11-02T00:57:42;2.0;1.0;
55686;PMS5003;41911;52.362;4.978;2022-11-02T00:58:13;1.0;1.0;
55686;PMS5003;41911;52.362;4.978;2022-11-02T00:58:44;1.0;0.0;
55686;PMS5003;41911;52.362;4.978;2022-11-02T00:59:15;2.0;1.0;
55686;PMS5003;41911;52.362;4.978;2022-11-02T00:59:46;1.0;1.0;
55686;PMS5003;41911;52.362;4.978;2022-11-02T01:00:17;1.0;1.0;
55686;PMS5003;41911;52.362;4.978;2022-11-02T01:00:48;2.0;1.0;
55686;PMS5003;41911;52.362;4.978;2022-11-02T01:01:19;0.0;0.0;
55686;PMS5003;41911;52.362;4.978;2022-11-02T01:01:50;1.0;1.0;
55686;PMS5003;41911;52.362;4.978;2022-11-02T01:02:20;0.0;0.0;
55686;PMS5003;41911;52.362;4.978;2022-11-02T01:02:51;1.0;1.0;
55686;PMS5003;41911;52.362;4.978;2022-11-02T01:03:22;2.0;0.0;
55686;PMS5003;41911;52.362;4.978;2022-11-02T01:03:54;0.0;0.0;
55686;PMS5003;41911;52.362;4.978;2022-11-02T01:04:25;1.0;0.0;
55686;PMS5003;41911;52.362;4.978;2022-11-02T01:04:57;0.0;0.0;
55686;PMS5003;41911;52.362;4.978;2022-11-02T01:05:28;0.0;0.0;
55686;PMS5003;41911;52.362;4.978;2022-11-02T01:06:04;1.0;0.0;
55686;PMS5003;41911;52.362;4.978;2022-11-02T01:06:37;0.0;0.0;
55686;PMS5003;41911;52.362;4.978;2022-11-02T01:07:08;0.0;0.0;
55686;PMS5003;41911;52.362;4.978;2022-11-02T01:07:39;0.0;0.0;
55686;PMS5003;41911;52.362;4.978;2022-11-02T01:08:10;1.0;1.0;
55686;PMS5003;41911;52.362;4.978;2022-11-02T01:08:41;1.0;0.0;
55686;PMS5003;41911;52.362;4.978;2022-11-02T01:09:13;2.0;0.0;
55686;PMS5003;41911;52.362;4.978;2022-11-02T01:09:44;2.0;1.0;
55686;PMS5003;41911;52.362;4.978;2022-11-02T01:10:15;0.0;0.0;
55686;PMS5003;41911;52.362;4.978;2022-11-02T01:10:46;0.0;0.0;
55686;PMS5003;41911;52.362;4.978;2022-11-02T01:11:19;2.0;0.0;
55686;PMS5003;41911;52.362;4.978;2022-11-02T01:11:51;0.0;0.0;
55686;PMS5003;41911;52.362;4.978;2022-11-02T01:12:22;0.0;0.0;
55686;PMS5003;41911;52.362;4.978;2022-11-02T01:12:53;2.0;1.0;
55686;PMS5003;41911;52.362;4.978;2022-11-02T01:13:24;0.0;0.0;
55686;PMS5003;41911;52.362;4.978;2022-11-02T01:13:55;1.0;0.0;
55686;PMS5003;41911;52.362;4.978;2022-11-02T01:14:26;1.0;1.0;
55686;PMS5003;41911;52.362;4.978;2022-11-02T01:14:57;1.0;1.0;
55686;PMS5003;41911;52.362;4.978;2022-11-02T01:15:30;1.0;0.0;
55686;PMS5003;41911;52.362;4.978;2022-11-02T01:16:02;0.0;0.0;
55686;PMS5003;41911;52.362;4.978;2022-11-02T01:16:33;0.0;0.0;
55686;PMS5003;41911;52.362;4.978;2022-11-02T01:17:04;2.0;0.0;
55686;PMS5003;41911;52.362;4.978;2022-11-02T01:17:35;0.0;0.0;
55686;PMS5003;41911;52.362;4.978;2022-11-02T01:18:07;0.0;0.0;
55686;PMS5003;41911;52.362;4.978;2022-11-02T01:18:39;3.0;0.0;
55686;PMS5003;41911;52.362;4.978;2022-11-02T01:19:11;2.0;0.0;
55686;PMS5003;41911;52.362;4.978;2022-11-02T01:19:48;1.0;1.0;
55686;PMS5003;41911;52.362;4.978;2022-11-02T01:20:19;1.0;1.0;
55686;PMS5003;41911;52.362;4.978;2022-11-02T01:20:54;1.0;1.0;
55686;PMS5003;41911;52.362;4.978;2022-11-02T01:21:25;0.0;0.0;
55686;PMS5003;41911;52.362;4.978;2022-11-02T01:22:01;1.0;1.0;
55686;PMS5003;41911;52.362;4.978;2022-11-02T01:22:35;0.0;0.0;
55686;PMS5003;41911;52.362;4.978;2022-11-02T01:23:06;2.0;1.0;
55686;PMS5003;41911;52.362;4.978;2022-11-02T01:23:38;1.0;1.0;
55686;PMS5003;41911;52.362;4.978;2022-11-02T01:24:09;1.0;1.0;
55686;PMS5003;41911;52.362;4.978;2022-11-02T01:24:40;1.0;0.0;
55686;PMS5003;41911;52.362;4.978;2022-11-02T01:25:11;0.0;0.0;
55686;PMS5003;41911;52.362;4.978;2022-11-02T01:25:44;1.0;1.0;
55686;PMS5003;41911;52.362;4.978;2022-11-02T01:26:16;0.0;0.0;
55686;PMS5003;41911;52.362;4.978;2022-11-02T01:26:48;0.0;0.0;
55686;PMS5003;41911;52.362;4.978;2022-11-02T01:27:20;2.0;0.0;
55686;PMS5003;41911;52.362;4.978;2022-11-02T01:27:51;3.0;2.0;
55686;PMS5003;41911;52.362;4.978;2022-11-02T01:28:22;2.0;2.0;
55686;PMS5003;41911;52.362;4.978;2022-11-02T01:28:53;1.0;1.0;
55686;PMS5003;41911;52.362;4.978;2022-11-02T01:29:24;1.0;0.0;
55686;PMS5003;41911;52.362;4.978;2022-11-02T01:29:55;1.0;0.0;
55686;PMS5003;41911;52.362;4.978;2022-11-02T01:30:26;2.0;1.0;
55686;PMS5003;41911;52.362;4.978;2022-11-02T01:30:57;1.0;1.0;
55686;PMS5003;41911;52.362;4.978;2022-11-02T01:31:29;1.0;1.0;
55686;PMS5003;41911;52.362;4.978;2022-11-02T01:32:00;2.0;2.0;
55686;PMS5003;41911;52.362;4.978;2022-11-02T01:32:31;3.0;2.0;
55686;PMS5003;41911;52.362;4.978;2022-11-02T01:33:03;1.0;1.0;
55686;PMS5003;41911;52.362;4.978;2022-11-02T01:33:35;5.0;2.0;
55686;PMS5003;41911;52.362;4.978;2022-11-02T01:34:07;2.0;2.0;
55686;PMS5003;41911;52.362;4.978;2022-11-02T01:34:39;3.0;2.0;
55686;PMS5003;41911;52.362;4.978;2022-11-02T01:35:10;5.0;3.0;
55686;PMS5003;41911;52.362;4.978;2022-11-02T01:35:41;2.0;1.0;
55686;PMS5003;41911;52.362;4.978;2022-11-02T01:36:13;0.0;0.0;
55686;PMS5003;41911;52.362;4.978;2022-11-02T01:36:45;2.0;1.0;
55686;PMS5003;41911;52.362;4.978;2022-11-02T01:37:16;2.0;1.0;
55686;PMS5003;41911;52.362;4.978;2022-11-02T01:37:47;1.0;1.0;
55686;PMS5003;41911;52.362;4.978;2022-11-02T01:38:18;1.0;1.0;
55686;PMS5003;41911;52.362;4.978;2022-11-02T01:38:49;4.0;3.0;
55686;PMS5003;41911;52.362;4.978;2022-11-02T01:39:20;1.0;1.0;
55686;PMS5003;41911;52.362;4.978;2022-11-02T01:39:51;4.0;2.0;
55686;PMS5003;41911;52.362;4.978;2022-11-02T01:40:22;2.0;1.0;
55686;PMS5003;41911;52.362;4.978;2022-11-02T01:40:53;1.0;0.0;
55686;PMS5003;41911;52.362;4.978;2022-11-02T01:41:24;1.0;1.0;
55686;PMS5003;41911;52.362;4.978;2022-11-02T01:41:55;0.0;0.0;
55686;PMS5003;41911;52.362;4.978;2022-11-02T01:42:26;1.0;1.0;
55686;PMS5003;41911;52.362;4.978;2022-11-02T01:42:58;1.0;0.0;
55686;PMS5003;41911;52.362;4.978;2022-11-02T01:43:30;0.0;0.0;
55686;PMS5003;41911;52.362;4.978;2022-11-02T01:44:02;0.0;0.0;
55686;PMS5003;41911;52.362;4.978;2022-11-02T01:44:34;1.0;0.0;
55686;PMS5003;41911;52.362;4.978;2022-11-02T01:45:05;0.0;0.0;
55686;PMS5003;41911;52.362;4.978;2022-11-02T01:45:40;0.0;0.0;
55686;PMS5003;41911;52.362;4.978;2022-11-02T01:46:13;1.0;0.0;
55686;PMS5003;41911;52.362;4.978;2022-11-02T01:46:46;0.0;0.0;
55686;PMS5003;41911;52.362;4.978;2022-11-02T01:47:18;0.0;0.0;
55686;PMS5003;41911;52.362;4.978;2022-11-02T01:47:53;0.0;0.0;
55686;PMS5003;41911;52.362;4.978;2022-11-02T01:48:25;0.0;0.0;
55686;PMS5003;41911;52.362;4.978;2022-11-02T01:49:00;1.0;1.0;
55686;PMS5003;41911;52.362;4.978;2022-11-02T01:50:07;3.0;0.0;
55686;PMS5003;41911;52.362;4.978;2022-11-02T01:50:41;1.0;0.0;
55686;PMS5003;41911;52.362;4.978;2022-11-02T01:51:13;0.0;0.0;
55686;PMS5003;41911;52.362;4.978;2022-11-02T01:51:54;1.0;1.0;
55686;PMS5003;41911;52.362;4.978;2022-11-02T01:52:30;0.0;0.0;
55686;PMS5003;41911;52.362;4.978;2022-11-02T01:53:04;1.0;1.0;
55686;PMS5003;41911;52.362;4.978;2022-11-02T01:53:36;0.0;0.0;
55686;PMS5003;41911;52.362;4.978;2022-11-02T01:54:11;2.0;0.0;
55686;PMS5003;41911;52.362;4.978;2022-11-02T01:54:47;2.0;0.0;
55686;PMS5003;41911;52.362;4.978;2022-11-02T01:55:24;1.0;1.0;
55686;PMS5003;41911;52.362;4.978;2022-11-02T01:56:00;2.0;1.0;
55686;PMS5003;41911;52.362;4.978;2022-11-02T01:56:32;0.0;0.0;
55686;PMS5003;41911;52.362;4.978;2022-11-02T01:57:06;0.0;0.0;
55686;PMS5003;41911;52.362;4.978;2022-11-02T01:57:39;2.0;1.0;
55686;PMS5003;41911;52.362;4.978;2022-11-02T01:58:14;0.0;0.0;
55686;PMS5003;41911;52.362;4.978;2022-11-02T01:58:52;2.0;0.0;
55686;PMS5003;41911;52.362;4.978;2022-11-02T01:59:27;1.0;0.0;
55686;PMS5003;41911;52.362;4.978;2022-11-02T02:00:03;2.0;0.0;
55686;PMS5003;41911;52.362;4.978;2022-11-02T02:00:36;0.0;0.0;
55686;PMS5003;41911;52.362;4.978;2022-11-02T02:01:08;2.0;1.0;
55686;PMS5003;41911;52.362;4.978;2022-11-02T02:01:39;0.0;0.0;
55686;PMS5003;41911;52.362;4.978;2022-11-02T02:02:12;0.0;0.0;
55686;PMS5003;41911;52.362;4.978;2022-11-02T02:02:47;1.0;0.0;
55686;PMS5003;41911;52.362;4.978;2022-11-02T02:03:24;0.0;0.0;
55686;PMS5003;41911;52.362;4.978;2022-11-02T02:03:59;1.0;1.0;
55686;PMS5003;41911;52.362;4.978;2022-11-02T02:04:31;0.0;0.0;
55686;PMS5003;41911;52.362;4.978;2022-11-02T02:05:04;1.0;0.0;
55686;PMS5003;41911;52.362;4.978;2022-11-02T02:05:39;1.0;0.0;
55686;PMS5003;41911;52.362;4.978;2022-11-02T02:06:14;1.0;0.0;
55686;PMS5003;41911;52.362;4.978;2022-11-02T02:06:45;0.0;0.0;
55686;PMS5003;41911;52.362;4.978;2022-11-02T02:07:18;3.0;2.0;
55686;PMS5003;41911;52.362;4.978;2022-11-02T02:07:51;2.0;2.0;
55686;PMS5003;41911;52.362;4.978;2022-11-02T02:08:23;2.0;1.0;
55686;PMS5003;41911;52.362;4.978;2022-11-02T02:09:26;0.0;0.0;
55686;PMS5003;41911;52.362;4.978;2022-11-02T02:09:59;1.0;0.0;
55686;PMS5003;41911;52.362;4.978;2022-11-02T02:10:30;2.0;1.0;
55686;PMS5003;41911;52.362;4.978;2022-11-02T02:11:01;4.0;2.0;
55686;PMS5003;41911;52.362;4.978;2022-11-02T02:11:33;4.0;1.0;
55686;PMS5003;41911;52.362;4.978;2022-11-02T02:12:06;2.0;1.0;
55686;PMS5003;41911;52.362;4.978;2022-11-02T02:12:37;0.0;0.0;
55686;PMS5003;41911;52.362;4.978;2022-11-02T02:13:11;2.0;1.0;
55686;PMS5003;41911;52.362;4.978;2022-11-02T02:13:43;2.0;1.0;
55686;PMS5003;41911;52.362;4.978;2022-11-02T02:14:14;0.0;0.0;
55686;PMS5003;41911;52.362;4.978;2022-11-02T02:14:47;1.0;1.0;
55686;PMS5003;41911;52.362;4.978;2022-11-02T02:15:19;0.0;0.0;
55686;PMS5003;41911;52.362;4.978;2022-11-02T02:16:00;0.0;0.0;
55686;PMS5003;41911;52.362;4.978;2022-11-02T02:16:44;0.0;0.0;
55686;PMS5003;41911;52.362;4.978;2022-11-02T02:17:25;1.0;0.0;
55686;PMS5003;41911;52.362;4.978;2022-11-02T02:18:06;1.0;0.0;
55686;PMS5003;41911;52.362;4.978;2022-11-02T02:18:42;2.0;1.0;
55686;PMS5003;41911;52.362;4.978;2022-11-02T02:19:23;1.0;0.0;
55686;PMS5003;41911;52.362;4.978;2022-11-02T02:20:05;2.0;0.0;
55686;PMS5003;41911;52.362;4.978;2022-11-02T02:20:47;0.0;0.0;
55686;PMS5003;41911;52.362;4.978;2022-11-02T02:21:34;2.0;0.0;
55686;PMS5003;41911;52.362;4.978;2022-11-02T02:22:23;2.0;1.0;
55686;PMS5003;41911;52.362;4.978;2022-11-02T02:25:51;1.0;1.0;
55686;PMS5003;41911;52.362;4.978;2022-11-02T02:27:38;3.0;2.0;
55686;PMS5003;41911;52.362;4.978;2022-11-02T02:28:18;1.0;1.0;
55686;PMS5003;41911;52.362;4.978;2022-11-02T02:28:56;0.0;0.0;
55686;PMS5003;41911;52.362;4.978;2022-11-02T02:29:36;2.0;1.0;
55686;PMS5003;41911;52.362;4.978;2022-11-02T02:30:16;0.0;0.0;
55686;PMS5003;41911;52.362;4.978;2022-11-02T02:30:49;1.0;1.0;
55686;PMS5003;41911;52.362;4.978;2022-11-02T02:31:29;3.0;0.0;
55686;PMS5003;41911;52.362;4.978;2022-11-02T02:32:06;2.0;2.0;
55686;PMS5003;41911;52.362;4.978;2022-11-02T02:32:43;1.0;1.0;
55686;PMS5003;41911;52.362;4.978;2022-11-02T02:33:20;1.0;1.0;
55686;PMS5003;41911;52.362;4.978;2022-11-02T02:34:01;1.0;1.0;
55686;PMS5003;41911;52.362;4.978;2022-11-02T02:34:40;2.0;2.0;
55686;PMS5003;41911;52.362;4.978;2022-11-02T02:35:22;2.0;2.0;
55686;PMS5003;41911;52.362;4.978;2022-11-02T02:35:57;1.0;1.0;
55686;PMS5003;41911;52.362;4.978;2022-11-02T02:36:31;2.0;1.0;
55686;PMS5003;41911;52.362;4.978;2022-11-02T02:37:09;2.0;1.0;
55686;PMS5003;41911;52.362;4.978;2022-11-02T02:37:48;3.0;1.0;
55686;PMS5003;41911;52.362;4.978;2022-11-02T02:38:25;3.0;2.0;
55686;PMS5003;41911;52.362;4.978;2022-11-02T02:39:03;0.0;0.0;
55686;PMS5003;41911;52.362;4.978;2022-11-02T02:39:41;0.0;0.0;
55686;PMS5003;41911;52.362;4.978;2022-11-02T02:40:20;1.0;1.0;
55686;PMS5003;41911;52.362;4.978;2022-11-02T02:40:56;3.0;1.0;
55686;PMS5003;41911;52.362;4.978;2022-11-02T02:41:36;3.0;2.0;
55686;PMS5003;41911;52.362;4.978;2022-11-02T02:42:10;3.0;1.0;
55686;PMS5003;41911;52.362;4.978;2022-11-02T02:42:50;1.0;1.0;
55686;PMS5003;41911;52.362;4.978;2022-11-02T02:43:24;1.0;1.0;
55686;PMS5003;41911;52.362;4.978;2022-11-02T02:44:04;1.0;1.0;
55686;PMS5003;41911;52.362;4.978;2022-11-02T02:44:40;2.0;2.0;
55686;PMS5003;41911;52.362;4.978;2022-11-02T02:45:17;1.0;1.0;
55686;PMS5003;41911;52.362;4.978;2022-11-02T02:45:54;2.0;2.0;
55686;PMS5003;41911;52.362;4.978;2022-11-02T02:46:30;1.0;1.0;
55686;PMS5003;41911;52.362;4.978;2022-11-02T02:47:08;4.0;2.0;
55686;PMS5003;41911;52.362;4.978;2022-11-02T02:47:45;0.0;0.0;
55686;PMS5003;41911;52.362;4.978;2022-11-02T02:48:18;2.0;1.0;
55686;PMS5003;41911;52.362;4.978;2022-11-02T02:48:51;1.0;1.0;
55686;PMS5003;41911;52.362;4.978;2022-11-02T02:49:27;3.0;1.0;
55686;PMS5003;41911;52.362;4.978;2022-11-02T02:50:04;0.0;0.0;
55686;PMS5003;41911;52.362;4.978;2022-11-02T02:50:42;1.0;1.0;
55686;PMS5003;41911;52.362;4.978;2022-11-02T02:51:18;2.0;1.0;
55686;PMS5003;41911;52.362;4.978;2022-11-02T02:51:54;3.0;1.0;
55686;PMS5003;41911;52.362;4.978;2022-11-02T02:52:26;1.0;1.0;
55686;PMS5003;41911;52.362;4.978;2022-11-02T02:53:00;3.0;1.0;
55686;PMS5003;41911;52.362;4.978;2022-11-02T02:53:37;3.0;1.0;
55686;PMS5003;41911;52.362;4.978;2022-11-02T02:54:14;2.0;2.0;
55686;PMS5003;41911;52.362;4.978;2022-11-02T02:54:49;3.0;1.0;
55686;PMS5003;41911;52.362;4.978;2022-11-02T02:55:23;2.0;1.0;
55686;PMS5003;41911;52.362;4.978;2022-11-02T02:56:00;2.0;2.0;
55686;PMS5003;41911;52.362;4.978;2022-11-02T02:56:35;2.0;0.0;
55686;PMS5003;41911;52.362;4.978;2022-11-02T02:57:17;3.0;3.0;
55686;PMS5003;41911;52.362;4.978;2022-11-02T02:57:51;2.0;2.0;
55686;PMS5003;41911;52.362;4.978;2022-11-02T02:58:26;2.0;2.0;
55686;PMS5003;41911;52.362;4.978;2022-11-02T02:59:05;3.0;1.0;
55686;PMS5003;41911;52.362;4.978;2022-11-02T02:59:44;2.0;0.0;
55686;PMS5003;41911;52.362;4.978;2022-11-02T03:00:16;7.0;2.0;
55686;PMS5003;41911;52.362;4.978;2022-11-02T03:00:49;2.0;2.0;
55686;PMS5003;41911;52.362;4.978;2022-11-02T03:01:21;2.0;2.0;
55686;PMS5003;41911;52.362;4.978;2022-11-02T03:01:54;1.0;0.0;
55686;PMS5003;41911;52.362;4.978;2022-11-02T03:02:27;2.0;2.0;
55686;PMS5003;41911;52.362;4.978;2022-11-02T03:03:04;5.0;1.0;
55686;PMS5003;41911;52.362;4.978;2022-11-02T03:03:35;2.0;2.0;
55686;PMS5003;41911;52.362;4.978;2022-11-02T03:04:09;2.0;2.0;
55686;PMS5003;41911;52.362;4.978;2022-11-02T03:04:41;3.0;2.0;
55686;PMS5003;41911;52.362;4.978;2022-11-02T03:05:29;2.0;1.0;
55686;PMS5003;41911;52.362;4.978;2022-11-02T03:06:03;2.0;1.0;
55686;PMS5003;41911;52.362;4.978;2022-11-02T03:06:45;2.0;0.0;
55686;PMS5003;41911;52.362;4.978;2022-11-02T03:07:22;2.0;2.0;
55686;PMS5003;41911;52.362;4.978;2022-11-02T03:07:55;4.0;3.0;
55686;PMS5003;41911;52.362;4.978;2022-11-02T03:08:31;1.0;1.0;
55686;PMS5003;41911;52.362;4.978;2022-11-02T03:09:06;1.0;1.0;
55686;PMS5003;41911;52.362;4.978;2022-11-02T03:09:44;1.0;1.0;
55686;PMS5003;41911;52.362;4.978;2022-11-02T03:10:24;4.0;1.0;
55686;PMS5003;41911;52.362;4.978;2022-11-02T03:11:06;2.0;2.0;
55686;PMS5003;41911;52.362;4.978;2022-11-02T03:11:45;5.0;1.0;
55686;PMS5003;41911;52.362;4.978;2022-11-02T03:12:31;4.0;3.0;
55686;PMS5003;41911;52.362;4.978;2022-11-02T03:13:19;0.0;0.0;
55686;PMS5003;41911;52.362;4.978;2022-11-02T03:14:05;2.0;2.0;
55686;PMS5003;41911;52.362;4.978;2022-11-02T03:14:47;2.0;2.0;
55686;PMS5003;41911;52.362;4.978;2022-11-02T03:15:34;4.0;1.0;
55686;PMS5003;41911;52.362;4.978;2022-11-02T03:16:10;2.0;2.0;
55686;PMS5003;41911;52.362;4.978;2022-11-02T03:17:02;2.0;2.0;
55686;PMS5003;41911;52.362;4.978;2022-11-02T03:17:45;4.0;3.0;
55686;PMS5003;41911;52.362;4.978;2022-11-02T03:18:28;4.0;3.0;
55686;PMS5003;41911;52.362;4.978;2022-11-02T03:19:12;3.0;2.0;
55686;PMS5003;41911;52.362;4.978;2022-11-02T03:19:52;4.0;1.0;
55686;PMS5003;41911;52.362;4.978;2022-11-02T03:20:36;2.0;1.0;
55686;PMS5003;41911;52.362;4.978;2022-11-02T03:21:23;2.0;1.0;
55686;PMS5003;41911;52.362;4.978;2022-11-02T03:22:02;2.0;1.0;
55686;PMS5003;41911;52.362;4.978;2022-11-02T03:22:43;5.0;4.0;
55686;PMS5003;41911;52.362;4.978;2022-11-02T03:23:28;2.0;2.0;
55686;PMS5003;41911;52.362;4.978;2022-11-02T03:24:04;2.0;2.0;
55686;PMS5003;41911;52.362;4.978;2022-11-02T03:24:45;2.0;2.0;
55686;PMS5003;41911;52.362;4.978;2022-11-02T03:25:28;2.0;2.0;
55686;PMS5003;41911;52.362;4.978;2022-11-02T03:26:04;3.0;3.0;
55686;PMS5003;41911;52.362;4.978;2022-11-02T03:26:45;4.0;3.0;
55686;PMS5003;41911;52.362;4.978;2022-11-02T03:27:20;2.0;2.0;
55686;PMS5003;41911;52.362;4.978;2022-11-02T03:28:05;4.0;3.0;
55686;PMS5003;41911;52.362;4.978;2022-11-02T03:28:47;3.0;3.0;
55686;PMS5003;41911;52.362;4.978;2022-11-02T03:29:30;3.0;2.0;
55686;PMS5003;41911;52.362;4.978;2022-11-02T03:30:10;4.0;3.0;
55686;PMS5003;41911;52.362;4.978;2022-11-02T03:30:45;1.0;1.0;
55686;PMS5003;41911;52.362;4.978;2022-11-02T03:31:26;3.0;2.0;
55686;PMS5003;41911;52.362;4.978;2022-11-02T03:32:05;5.0;2.0;
55686;PMS5003;41911;52.362;4.978;2022-11-02T03:32:46;4.0;3.0;
55686;PMS5003;41911;52.362;4.978;2022-11-02T03:33:25;3.0;2.0;
55686;PMS5003;41911;52.362;4.978;2022-11-02T03:34:01;4.0;3.0;
55686;PMS5003;41911;52.362;4.978;2022-11-02T03:34:39;4.0;2.0;
55686;PMS5003;41911;52.362;4.978;2022-11-02T03:35:14;5.0;4.0;
55686;PMS5003;41911;52.362;4.978;2022-11-02T03:35:50;4.0;2.0;
55686;PMS5003;41911;52.362;4.978;2022-11-02T03:36:27;4.0;2.0;
55686;PMS5003;41911;52.362;4.978;2022-11-02T03:37:04;3.0;2.0;
55686;PMS5003;41911;52.362;4.978;2022-11-02T03:37:43;4.0;3.0;
55686;PMS5003;41911;52.362;4.978;2022-11-02T03:38:23;2.0;2.0;
55686;PMS5003;41911;52.362;4.978;2022-11-02T03:39:03;3.0;2.0;
55686;PMS5003;41911;52.362;4.978;2022-11-02T03:39:38;3.0;2.0;
55686;PMS5003;41911;52.362;4.978;2022-11-02T03:40:13;4.0;3.0;
55686;PMS5003;41911;52.362;4.978;2022-11-02T03:40:51;5.0;4.0;
55686;PMS5003;41911;52.362;4.978;2022-11-02T03:41:23;3.0;3.0;
55686;PMS5003;41911;52.362;4.978;2022-11-02T03:41:57;5.0;3.0;
55686;PMS5003;41911;52.362;4.978;2022-11-02T03:42:33;4.0;4.0;
55686;PMS5003;41911;52.362;4.978;2022-11-02T03:43:05;4.0;2.0;
55686;PMS5003;41911;52.362;4.978;2022-11-02T03:43:37;5.0;3.0;
55686;PMS5003;41911;52.362;4.978;2022-11-02T03:44:12;4.0;2.0;
55686;PMS5003;41911;52.362;4.978;2022-11-02T03:44:45;6.0;5.0;
55686;PMS5003;41911;52.362;4.978;2022-11-02T03:45:22;5.0;4.0;
55686;PMS5003;41911;52.362;4.978;2022-11-02T03:45:58;4.0;3.0;
55686;PMS5003;41911;52.362;4.978;2022-11-02T03:46:38;4.0;4.0;
55686;PMS5003;41911;52.362;4.978;2022-11-02T03:47:12;8.0;3.0;
55686;PMS5003;41911;52.362;4.978;2022-11-02T03:47:48;4.0;3.0;
55686;PMS5003;41911;52.362;4.978;2022-11-02T03:48:25;4.0;3.0;
55686;PMS5003;41911;52.362;4.978;2022-11-02T03:49:02;4.0;4.0;
55686;PMS5003;41911;52.362;4.978;2022-11-02T03:49:38;2.0;2.0;